»·PEaware :: UAL576 KSFO-KSLC

UAL576 :: KSFO-KSLC

FLIGHT INFORMATION

Flight Status: Arrived
Operator:
United Airlines
More flights by this operator :: More flights under this callsign
Pilot: Anonymous 8274 (8274)
Aircraft: BOEING 737-300
(B733)
More flights by this aircraft type
Origin: KSFO San Francisco Intl
United States
Destination: KSLC Salt Lake City Intl
United States
More flights between these airports :: More routes between these airports
Route: +TRUKN2 MOGEE Q124 BVL WAATS5
File this flight plan on PilotEdge
Remarks:
Altitude:
(Current/Filed)
33,000ft
Speed:
(Current/Filed)
460kts
Departed: 28-Apr-18 04:33 PM
Arrived: 28-Apr-18 05:59 PM
Distance/Time
Traveled:
519nm/1:26
Distance/Time
To Go:
Arrived

Flight Plot

Page will automatically refresh every two minutes.

Flight plan parsing failed; only flown route is shown


Map Options




Map Legend


Flown Route
Filed Route
Departure Airport
Arrival Airport
Navaid (VOR, NDB)
Fix

Horizontal Profiles

Position Reports

Time Latitude Longitude Heading Altitude Ground
Speed
28-Apr-18 15:27 37.618779 -122.385189 155 19ft 0kts
28-Apr-18 15:28 37.618779 -122.385189 155 19ft 0kts
28-Apr-18 15:29 37.618779 -122.385189 155 19ft 0kts
28-Apr-18 15:30 37.618779 -122.385189 155 19ft 0kts
28-Apr-18 15:31 37.618779 -122.385189 155 19ft 0kts
28-Apr-18 15:32 37.618779 -122.385189 155 19ft 0kts
28-Apr-18 15:33 37.618779 -122.385189 155 19ft 0kts
28-Apr-18 15:34 37.618779 -122.385189 155 19ft 0kts
28-Apr-18 15:35 37.618779 -122.385189 155 19ft 0kts
28-Apr-18 15:36 37.618779 -122.385189 155 19ft 0kts
28-Apr-18 15:37 37.618779 -122.385189 155 19ft 0kts
28-Apr-18 15:38 37.618779 -122.385189 155 19ft 0kts
28-Apr-18 15:39 37.618779 -122.385189 155 19ft 0kts
28-Apr-18 15:40 37.618779 -122.385189 155 19ft 0kts
28-Apr-18 15:41 37.618779 -122.385189 155 19ft 0kts
28-Apr-18 15:42 37.618779 -122.385189 155 19ft 0kts
28-Apr-18 15:43 37.618779 -122.385189 155 19ft 0kts
28-Apr-18 15:44 37.618779 -122.385189 155 19ft 0kts
28-Apr-18 15:45 37.618779 -122.385189 155 19ft 0kts
28-Apr-18 15:46 37.618779 -122.385189 155 19ft 0kts
28-Apr-18 15:47 37.618779 -122.385189 155 19ft 0kts
28-Apr-18 15:48 37.618779 -122.385189 155 19ft 0kts
28-Apr-18 15:49 37.618779 -122.385189 155 19ft 0kts
28-Apr-18 15:50 37.618779 -122.385189 155 19ft 0kts
28-Apr-18 15:51 37.618779 -122.385189 155 19ft 0kts
28-Apr-18 15:52 37.618779 -122.385189 155 19ft 0kts
28-Apr-18 15:53 37.618779 -122.385189 155 19ft 0kts
28-Apr-18 15:54 37.618779 -122.385189 155 19ft 0kts
28-Apr-18 15:55 37.618779 -122.385189 155 19ft 0kts
28-Apr-18 15:56 37.618779 -122.385189 155 19ft 0kts
28-Apr-18 15:57 37.618779 -122.385189 155 19ft 0kts
28-Apr-18 15:58 37.618779 -122.385189 155 19ft 0kts
28-Apr-18 15:59 37.618779 -122.385189 155 19ft 0kts
28-Apr-18 16:00 37.618779 -122.385189 155 19ft 0kts
28-Apr-18 16:01 37.618779 -122.385189 155 19ft 0kts
28-Apr-18 16:02 37.618779 -122.385189 155 19ft 0kts
28-Apr-18 16:03 37.618779 -122.385189 155 19ft 0kts
28-Apr-18 16:04 37.618779 -122.385189 155 19ft 0kts
28-Apr-18 16:05 37.618779 -122.385189 155 19ft 0kts
28-Apr-18 16:06 37.618779 -122.385189 155 19ft 0kts
28-Apr-18 16:07 37.618779 -122.385189 155 19ft 0kts
28-Apr-18 16:08 37.618779 -122.385189 155 19ft 0kts
28-Apr-18 16:09 37.618779 -122.385189 155 19ft 0kts
28-Apr-18 16:10 37.618779 -122.385189 155 19ft 0kts
28-Apr-18 16:11 37.618779 -122.385189 155 19ft 0kts
28-Apr-18 16:12 37.618779 -122.385189 155 19ft 0kts
28-Apr-18 16:13 37.618779 -122.385189 155 19ft 0kts
28-Apr-18 16:14 37.618779 -122.385189 155 19ft 0kts
28-Apr-18 16:15 37.618779 -122.385189 155 19ft 0kts
28-Apr-18 16:16 37.618779 -122.385189 155 19ft 0kts
28-Apr-18 16:17 37.618779 -122.385189 155 19ft 0kts
28-Apr-18 16:18 37.618779 -122.385189 155 19ft 0kts
28-Apr-18 16:19 37.618779 -122.385189 155 19ft 0kts
28-Apr-18 16:20 37.619248 -122.385459 155 19ft 2kts
28-Apr-18 16:21 37.619450 -122.385952 56 19ft 0kts
28-Apr-18 16:22 37.619406 -122.386022 52 19ft 0kts
28-Apr-18 16:23 37.619406 -122.386022 52 19ft 0kts
28-Apr-18 16:24 37.619777 -122.385500 31 19ft 11kts
28-Apr-18 16:25 37.620132 -122.385257 27 19ft 0kts
28-Apr-18 16:26 37.620425 -122.385066 27 19ft 8kts
28-Apr-18 16:27 37.618164 -122.379640 154 19ft 20kts
28-Apr-18 16:28 37.612202 -122.382573 208 19ft 26kts
28-Apr-18 16:29 37.608758 -122.384524 124 19ft 0kts
28-Apr-18 16:30 37.608758 -122.384524 124 19ft 0kts
28-Apr-18 16:31 37.608697 -122.384401 120 19ft 5kts
28-Apr-18 16:32 37.609701 -122.381725 27 19ft 45kts
28-Apr-18 16:33 37.641759 -122.358769 28 924ft 159kts
28-Apr-18 16:34 37.669805 -122.308062 55 2360ft 224kts
28-Apr-18 16:35 37.706955 -122.235994 56 4804ft 274kts
28-Apr-18 16:36 37.763960 -122.172661 32 7733ft 289kts
28-Apr-18 16:37 37.825174 -122.104291 44 10251ft 322kts
28-Apr-18 16:38 37.892161 -122.010372 43 11989ft 377kts
28-Apr-18 16:39 37.964178 -121.910516 42 14575ft 394kts
28-Apr-18 16:40 38.038807 -121.806813 41 16921ft 409kts
28-Apr-18 16:41 38.115717 -121.699673 41 19064ft 425kts
28-Apr-18 16:42 38.195425 -121.588388 41 21143ft 437kts
28-Apr-18 16:43 38.277724 -121.472856 40 22988ft 451kts
28-Apr-18 16:44 38.357975 -121.355741 45 24669ft 466kts
28-Apr-18 16:45 38.430286 -121.238011 45 26063ft 476kts
28-Apr-18 16:46 38.510944 -121.107568 45 27098ft 485kts
28-Apr-18 16:47 38.593641 -120.973272 45 27185ft 485kts
28-Apr-18 16:48 38.677394 -120.836702 44 28785ft 489kts
28-Apr-18 16:49 38.759929 -120.701563 44 30525ft 485kts
28-Apr-18 16:50 38.841349 -120.567699 43 31934ft 484kts
28-Apr-18 16:51 38.920993 -120.436243 43 33012ft 486kts
28-Apr-18 16:52 39.000998 -120.303407 44 32982ft 485kts
28-Apr-18 16:53 39.082207 -120.168090 44 33025ft 485kts
28-Apr-18 16:54 39.159722 -120.038890 44 33025ft 485kts
28-Apr-18 16:55 39.241551 -119.901571 44 32949ft 486kts
28-Apr-18 16:56 39.323350 -119.763698 44 32942ft 486kts
28-Apr-18 16:57 39.404208 -119.626202 45 32955ft 478kts
28-Apr-18 16:58 39.483101 -119.492312 44 32933ft 465kts
28-Apr-18 16:59 39.560635 -119.359742 44 32940ft 460kts
28-Apr-18 17:00 39.635258 -119.231165 45 32944ft 462kts
28-Apr-18 17:01 39.711882 -119.098823 45 32916ft 462kts
28-Apr-18 17:02 39.788652 -118.965692 45 32916ft 462kts
28-Apr-18 17:03 39.864950 -118.832819 45 32916ft 462kts
28-Apr-18 17:04 39.930276 -118.685671 60 32886ft 479kts
28-Apr-18 17:05 39.993217 -118.530607 61 32927ft 487kts
28-Apr-18 17:06 40.055378 -118.377374 61 32912ft 485kts
28-Apr-18 17:07 40.114028 -118.231986 62 32893ft 485kts
28-Apr-18 17:08 40.176397 -118.077221 62 32917ft 485kts
28-Apr-18 17:09 40.224740 -117.914188 76 32916ft 482kts
28-Apr-18 17:10 40.263202 -117.747067 75 32916ft 480kts
28-Apr-18 17:11 40.301966 -117.580149 75 32915ft 480kts
28-Apr-18 17:12 40.340458 -117.413123 75 32916ft 478kts
28-Apr-18 17:13 40.377787 -117.249742 76 32915ft 477kts
28-Apr-18 17:14 40.415665 -117.082916 76 32917ft 476kts
28-Apr-18 17:15 40.452025 -116.921684 76 32835ft 457kts
28-Apr-18 17:16 40.481948 -116.787995 78 32885ft 458kts
28-Apr-18 17:17 40.517848 -116.626613 76 32873ft 462kts
28-Apr-18 17:18 40.553370 -116.465765 77 32859ft 460kts
28-Apr-18 17:19 40.574847 -116.304017 90 32837ft 453kts
28-Apr-18 17:20 40.586780 -116.141310 89 32861ft 453kts
28-Apr-18 17:21 40.601276 -115.950441 89 32860ft 451kts
28-Apr-18 17:22 40.613400 -115.786507 89 32860ft 451kts
28-Apr-18 17:23 40.623226 -115.649942 89 32861ft 450kts
28-Apr-18 17:24 40.634658 -115.486529 90 32862ft 449kts
28-Apr-18 17:25 40.645847 -115.324262 90 32827ft 449kts
28-Apr-18 17:26 40.657440 -115.161973 90 32861ft 448kts
28-Apr-18 17:27 40.669388 -114.999254 90 32862ft 447kts
28-Apr-18 17:28 40.681672 -114.836375 90 32748ft 446kts
28-Apr-18 17:29 40.689930 -114.674352 92 32753ft 444kts
28-Apr-18 17:30 40.699590 -114.513055 91 32754ft 444kts
28-Apr-18 17:31 40.705447 -114.355562 93 32754ft 442kts
28-Apr-18 17:32 40.710702 -114.214451 94 32752ft 441kts
28-Apr-18 17:33 40.716504 -114.053492 94 32753ft 440kts
28-Apr-18 17:34 40.722070 -113.892793 94 32753ft 440kts
28-Apr-18 17:35 40.726598 -113.731833 96 30517ft 448kts
28-Apr-18 17:36 40.725916 -113.566840 95 27262ft 462kts
28-Apr-18 17:37 40.725704 -113.399203 95 24870ft 450kts
28-Apr-18 17:38 40.725392 -113.278790 96 23119ft 435kts
28-Apr-18 17:39 40.724852 -113.139088 95 20985ft 420kts
28-Apr-18 17:40 40.724117 -112.994591 95 18859ft 402kts
28-Apr-18 17:41 40.723114 -112.850207 95 16910ft 381kts
28-Apr-18 17:42 40.721422 -112.716882 95 16534ft 389kts
28-Apr-18 17:43 40.721005 -112.665087 95 16283ft 370kts
28-Apr-18 17:44 40.719858 -112.538543 93 16075ft 391kts
28-Apr-18 17:45 40.741677 -112.396651 80 14220ft 403kts
28-Apr-18 17:46 40.764343 -112.259592 85 12223ft 383kts
28-Apr-18 17:47 40.752405 -112.129078 128 11998ft 380kts
28-Apr-18 17:48 40.660102 -112.080413 178 12040ft 366kts
28-Apr-18 17:49 40.569681 -112.070587 179 11816ft 291kts
28-Apr-18 17:50 40.507161 -112.027677 108 10220ft 296kts
28-Apr-18 17:51 40.529180 -111.936680 19 9030ft 254kts
28-Apr-18 17:52 40.587698 -111.939122 340 8562ft 198kts
28-Apr-18 17:53 40.639003 -111.956104 350 7340ft 184kts
28-Apr-18 17:54 40.684278 -111.961556 349 6219ft 145kts
28-Apr-18 17:55 40.716654 -111.965834 348 5579ft 148kts
28-Apr-18 17:56 40.755144 -111.970808 348 4661ft 142kts
28-Apr-18 17:57 40.789924 -111.974901 353 4234ft 78kts
28-Apr-18 17:58 40.794232 -111.977587 175 4234ft 17kts
28-Apr-18 17:59 40.789208 -111.976980 173 4234ft 13kts
28-Apr-18 18:00 40.787775 -111.977792 274 4234ft 0kts

Navigation Log

Ident Type
Flight plan parsing failed, navigation log unavailable